Time;durP1;ratioP1;P1;durP2;ratioP2;P2;SDS_P1;SDS_P2;PMS_P1;PMS_P2;Temp;Humidity;BMP_temperature;BMP_pressure;BME280_temperature;BME280_humidity;BME280_pressure;Samples;Min_cycle;Max_cycle;Signal;HPM_P1;HPM_P2
2022/05/21 00:00:29;;;;;;;21.73;14.25;;;;;;;;;;5030903;28;20189;-65
2022/05/21 00:02:55;;;;;;;22.13;15.25;;;;;;;;;;5039714;28;20720;-67
2022/05/21 00:05:23;;;;;;;27.67;16.58;;;;;;;;;;5045930;28;20205;-68
2022/05/21 00:07:49;;;;;;;29.30;18.08;;;;;;;;;;5038623;28;20234;-69
2022/05/21 00:10:16;;;;;;;28.75;18.42;;;;;;;;;;5048061;28;20578;-67
2022/05/21 00:12:42;;;;;;;29.33;18.38;;;;;;;;;;5042040;28;20254;-67
2022/05/21 00:15:10;;;;;;;29.33;18.02;;;;;;;;;;5036798;28;20185;-66
2022/05/21 00:17:36;;;;;;;30.17;19.40;;;;;;;;;;5038343;28;20184;-68
2022/05/21 00:20:02;;;;;;;33.40;19.55;;;;;;;;;;5030422;28;20209;-68
2022/05/21 00:22:27;;;;;;;35.38;20.05;;;;;;;;;;5032535;28;20240;-66
2022/05/21 00:24:53;;;;;;;34.08;21.38;;;;;;;;;;5031334;28;20557;-66
2022/05/21 00:27:19;;;;;;;29.00;19.30;;;;;;;;;;5042736;28;20174;-67
2022/05/21 00:29:44;;;;;;;29.48;20.77;;;;;;;;;;5041820;28;20268;-67
2022/05/21 00:32:10;;;;;;;30.23;19.92;;;;;;;;;;5046039;28;20289;-67
2022/05/21 00:34:36;;;;;;;34.05;20.20;;;;;;;;;;5035444;28;20312;-66
2022/05/21 00:37:02;;;;;;;28.98;19.55;;;;;;;;;;5045346;28;20538;-67
2022/05/21 00:39:28;;;;;;;28.38;19.20;;;;;;;;;;5029822;28;20197;-67
2022/05/21 00:41:53;;;;;;;27.30;18.10;;;;;;;;;;5041802;28;20552;-65
2022/05/21 00:44:19;;;;;;;28.25;18.38;;;;;;;;;;5048207;28;20177;-66
2022/05/21 00:46:46;;;;;;;31.00;18.80;;;;;;;;;;5039813;28;20193;-66
2022/05/21 00:49:19;;;;;;;29.73;17.92;;;;;;;;;;5037591;28;20532;-66
2022/05/21 00:51:52;;;;;;;30.65;17.67;;;;;;;;;;5039862;28;20334;-66
2022/05/21 00:54:23;;;;;;;33.15;18.23;;;;;;;;;;5041312;28;20641;-68
2022/05/21 00:56:57;;;;;;;27.45;17.95;;;;;;;;;;5037578;28;20178;-68
2022/05/21 01:02:08;;;;;;;30.15;18.33;;;;;;;;;;5033768;28;20193;-66
2022/05/21 01:04:36;;;;;;;28.77;17.92;;;;;;;;;;5042260;28;20201;-66
2022/05/21 01:07:02;;;;;;;29.20;17.88;;;;;;;;;;5032386;28;20332;-66
2022/05/21 01:09:28;;;;;;;35.05;18.98;;;;;;;;;;5040182;28;20575;-67
2022/05/21 01:11:55;;;;;;;30.27;17.58;;;;;;;;;;5041336;28;20236;-66
2022/05/21 01:14:21;;;;;;;34.50;18.10;;;;;;;;;;5043347;28;20267;-67
2022/05/21 01:16:48;;;;;;;27.17;17.88;;;;;;;;;;5032137;28;20194;-65
2022/05/21 01:19:14;;;;;;;29.48;18.27;;;;;;;;;;5027781;28;20186;-65
2022/05/21 01:21:40;;;;;;;31.60;18.77;;;;;;;;;;5038620;28;20181;-66
2022/05/21 01:24:07;;;;;;;31.23;19.00;;;;;;;;;;5036954;28;20186;-65
2022/05/21 01:26:33;;;;;;;29.42;17.90;;;;;;;;;;5030964;28;20283;-65
2022/05/21 01:29:01;;;;;;;31.88;19.45;;;;;;;;;;5034652;28;20205;-66
2022/05/21 01:31:27;;;;;;;29.48;18.85;;;;;;;;;;5043012;28;20212;-66
2022/05/21 01:33:52;;;;;;;27.38;17.77;;;;;;;;;;5032843;28;20268;-65
2022/05/21 01:36:17;;;;;;;36.50;20.08;;;;;;;;;;5027760;28;20170;-66
2022/05/21 01:38:43;;;;;;;32.85;20.27;;;;;;;;;;5031476;28;20552;-66
2022/05/21 01:41:09;;;;;;;27.42;19.42;;;;;;;;;;5028059;28;20316;-68
2022/05/21 01:46:19;;;;;;;27.75;18.48;;;;;;;;;;5028792;28;20208;-67
2022/05/21 01:48:45;;;;;;;34.03;19.48;;;;;;;;;;5027638;28;20187;-66
2022/05/21 01:51:11;;;;;;;29.98;18.98;;;;;;;;;;5035840;28;20189;-66
2022/05/21 01:53:38;;;;;;;29.92;19.05;;;;;;;;;;5032561;28;20774;-66
2022/05/21 01:56:05;;;;;;;28.52;18.00;;;;;;;;;;5033945;28;20293;-66
2022/05/21 01:58:30;;;;;;;29.08;18.33;;;;;;;;;;5039706;28;20181;-65
2022/05/21 02:00:56;;;;;;;29.15;18.60;;;;;;;;;;5034963;28;20189;-69
2022/05/21 02:03:22;;;;;;;29.33;18.40;;;;;;;;;;5038791;28;20200;-66
2022/05/21 02:05:48;;;;;;;28.83;18.20;;;;;;;;;;5041376;28;20202;-66
2022/05/21 02:08:15;;;;;;;29.85;18.02;;;;;;;;;;5037502;28;20569;-70
2022/05/21 02:10:41;;;;;;;28.55;17.60;;;;;;;;;;5037244;28;20241;-66
2022/05/21 02:13:12;;;;;;;27.98;19.08;;;;;;;;;;5038749;28;20608;-67
2022/05/21 02:15:37;;;;;;;27.50;18.85;;;;;;;;;;5035733;28;20194;-67
2022/05/21 02:18:02;;;;;;;29.35;18.48;;;;;;;;;;5037926;28;20193;-69
2022/05/21 02:20:28;;;;;;;29.10;19.17;;;;;;;;;;5038351;28;20174;-66
2022/05/21 02:22:53;;;;;;;25.67;18.35;;;;;;;;;;5038883;28;20182;-66
2022/05/21 02:25:18;;;;;;;29.02;19.02;;;;;;;;;;5039371;28;20200;-67
2022/05/21 02:27:44;;;;;;;26.27;18.73;;;;;;;;;;5040852;28;20189;-67
2022/05/21 02:30:10;;;;;;;29.10;19.50;;;;;;;;;;5035813;28;20193;-66
2022/05/21 02:32:36;;;;;;;25.20;18.00;;;;;;;;;;5038623;28;20217;-67
2022/05/21 02:35:01;;;;;;;30.02;18.90;;;;;;;;;;5033682;28;20181;-66
2022/05/21 02:40:11;;;;;;;31.15;19.33;;;;;;;;;;5034017;28;20188;-66
2022/05/21 02:42:48;;;;;;;27.55;18.90;;;;;;;;;;5031958;28;20550;-66
2022/05/21 02:45:22;;;;;;;32.50;19.70;;;;;;;;;;5032884;28;20205;-66
2022/05/21 02:47:48;;;;;;;26.40;17.42;;;;;;;;;;5037585;28;20181;-65
2022/05/21 02:50:16;;;;;;;31.65;19.75;;;;;;;;;;5038748;28;20421;-67
2022/05/21 02:52:42;;;;;;;25.85;18.63;;;;;;;;;;5037566;28;20205;-68
2022/05/21 02:55:09;;;;;;;28.02;19.55;;;;;;;;;;5039196;28;20547;-67
2022/05/21 02:57:34;;;;;;;28.77;18.65;;;;;;;;;;5043553;28;20271;-65
2022/05/21 03:00:03;;;;;;;28.65;19.85;;;;;;;;;;5040416;28;20331;-65
2022/05/21 03:02:28;;;;;;;31.00;19.30;;;;;;;;;;5039408;28;20272;-67
2022/05/21 03:04:54;;;;;;;23.52;17.80;;;;;;;;;;5039897;28;20335;-66
2022/05/21 03:07:19;;;;;;;27.20;18.83;;;;;;;;;;5039851;28;20186;-68
2022/05/21 03:12:28;;;;;;;27.20;18.35;;;;;;;;;;5033538;28;20244;-66
2022/05/21 03:14:54;;;;;;;26.42;17.90;;;;;;;;;;5032772;28;20178;-66
2022/05/21 03:17:19;;;;;;;31.45;18.98;;;;;;;;;;5031734;28;20221;-66
2022/05/21 03:19:44;;;;;;;29.00;18.88;;;;;;;;;;5031732;28;20205;-68
2022/05/21 03:22:10;;;;;;;28.30;18.02;;;;;;;;;;5037855;28;20184;-65
2022/05/21 03:24:35;;;;;;;33.40;19.92;;;;;;;;;;5036343;28;20670;-67
2022/05/21 03:27:00;;;;;;;25.80;18.33;;;;;;;;;;5036284;28;20186;-67
2022/05/21 03:29:26;;;;;;;26.88;18.38;;;;;;;;;;5048563;28;20193;-66
2022/05/21 03:31:51;;;;;;;29.50;17.67;;;;;;;;;;5037860;28;20202;-67
2022/05/21 03:34:20;;;;;;;26.92;18.55;;;;;;;;;;5040118;28;20178;-67
2022/05/21 03:36:45;;;;;;;28.10;18.42;;;;;;;;;;5048609;28;20182;-66
2022/05/21 03:39:11;;;;;;;30.63;18.35;;;;;;;;;;5035821;28;20192;-66
2022/05/21 03:41:36;;;;;;;26.05;18.52;;;;;;;;;;5045327;28;20260;-66
2022/05/21 03:44:02;;;;;;;27.98;19.60;;;;;;;;;;5044470;28;20264;-67
2022/05/21 03:46:28;;;;;;;26.83;17.48;;;;;;;;;;5037806;28;20221;-68
2022/05/21 03:48:53;;;;;;;27.83;18.08;;;;;;;;;;5035704;28;20220;-66
2022/05/21 03:51:19;;;;;;;29.35;18.25;;;;;;;;;;5037028;28;20220;-67
2022/05/21 03:53:44;;;;;;;29.05;19.05;;;;;;;;;;5034293;28;20221;-67
2022/05/21 03:56:10;;;;;;;32.08;19.02;;;;;;;;;;5038871;28;20213;-67
2022/05/21 03:58:35;;;;;;;31.88;19.42;;;;;;;;;;5045573;28;20223;-67
2022/05/21 04:01:00;;;;;;;28.25;18.92;;;;;;;;;;5040720;28;20186;-66
2022/05/21 04:03:26;;;;;;;30.48;19.60;;;;;;;;;;5037618;28;20190;-68
2022/05/21 04:05:55;;;;;;;32.20;18.83;;;;;;;;;;5042564;28;20216;-67
2022/05/21 04:08:21;;;;;;;30.60;18.58;;;;;;;;;;5039285;28;20256;-67
2022/05/21 04:10:47;;;;;;;34.33;18.38;;;;;;;;;;5041078;28;20347;-66
2022/05/21 04:13:13;;;;;;;30.90;18.35;;;;;;;;;;5037610;28;20305;-66
2022/05/21 04:15:38;;;;;;;31.90;17.60;;;;;;;;;;5046018;28;20498;-68
2022/05/21 04:18:04;;;;;;;30.45;17.85;;;;;;;;;;5040042;28;20260;-66
2022/05/21 04:20:29;;;;;;;28.67;18.15;;;;;;;;;;5039620;28;20216;-67
2022/05/21 04:22:55;;;;;;;25.58;16.05;;;;;;;;;;5039254;28;20182;-67
2022/05/21 04:25:20;;;;;;;24.70;16.02;;;;;;;;;;5035021;28;20201;-68
2022/05/21 04:27:46;;;;;;;27.08;16.67;;;;;;;;;;5035900;28;20319;-66
2022/05/21 04:30:16;;;;;;;26.08;14.88;;;;;;;;;;5045198;28;20280;-67
2022/05/21 04:32:43;;;;;;;28.33;15.88;;;;;;;;;;5038716;28;20806;-66
2022/05/21 04:35:08;;;;;;;28.27;15.93;;;;;;;;;;5041277;28;20254;-66
2022/05/21 04:37:39;;;;;;;33.65;15.60;;;;;;;;;;5043000;28;20264;-66
2022/05/21 04:40:06;;;;;;;29.92;15.75;;;;;;;;;;5036168;28;20672;-66
2022/05/21 04:42:31;;;;;;;27.17;14.98;;;;;;;;;;5037910;28;20264;-66
2022/05/21 04:44:57;;;;;;;24.10;14.50;;;;;;;;;;5029021;28;20770;-69
2022/05/21 04:47:22;;;;;;;27.63;14.75;;;;;;;;;;5040139;28;20193;-66
2022/05/21 04:49:48;;;;;;;27.33;14.77;;;;;;;;;;5045054;28;20266;-67
2022/05/21 04:52:13;;;;;;;20.95;13.68;;;;;;;;;;5042115;28;20190;-66
2022/05/21 04:54:38;;;;;;;26.50;13.80;;;;;;;;;;5044341;28;20212;-67
2022/05/21 04:57:04;;;;;;;28.08;13.57;;;;;;;;;;5041619;28;20697;-68
2022/05/21 04:59:30;;;;;;;20.92;13.55;;;;;;;;;;5033598;28;20185;-67
2022/05/21 05:01:56;;;;;;;22.65;13.18;;;;;;;;;;5035918;28;20324;-65
2022/05/21 05:04:22;;;;;;;25.83;14.13;;;;;;;;;;5029678;28;20273;-67
2022/05/21 05:06:47;;;;;;;27.02;13.50;;;;;;;;;;5037549;28;20630;-68
2022/05/21 05:09:12;;;;;;;23.95;12.63;;;;;;;;;;5036943;28;20185;-66
2022/05/21 05:11:38;;;;;;;19.73;12.05;;;;;;;;;;5036874;28;20338;-66
2022/05/21 05:14:03;;;;;;;22.50;12.70;;;;;;;;;;5038723;28;20188;-67
2022/05/21 05:16:29;;;;;;;23.83;12.85;;;;;;;;;;5033693;28;20186;-67
2022/05/21 05:18:54;;;;;;;20.23;11.55;;;;;;;;;;5036073;28;20778;-69
2022/05/21 05:21:19;;;;;;;22.23;10.75;;;;;;;;;;5036723;28;20261;-67
2022/05/21 05:23:45;;;;;;;19.77;10.90;;;;;;;;;;5041830;28;20238;-67
2022/05/21 05:26:10;;;;;;;20.88;10.18;;;;;;;;;;5038916;28;20205;-68
2022/05/21 05:28:35;;;;;;;22.05;10.35;;;;;;;;;;5037613;28;20178;-68
2022/05/21 05:31:01;;;;;;;23.83;10.18;;;;;;;;;;5034520;28;20233;-67
2022/05/21 05:33:29;;;;;;;17.65;9.35;;;;;;;;;;5032546;28;20276;-67
2022/05/21 05:35:54;;;;;;;15.88;8.63;;;;;;;;;;5036077;28;20692;-66
2022/05/21 05:38:22;;;;;;;18.45;8.05;;;;;;;;;;5036444;28;20182;-67
2022/05/21 05:40:50;;;;;;;16.70;7.45;;;;;;;;;;5033765;28;20208;-69
2022/05/21 05:43:17;;;;;;;19.20;7.18;;;;;;;;;;5036205;28;20254;-67
2022/05/21 05:45:43;;;;;;;15.40;7.20;;;;;;;;;;5037955;28;20216;-67
2022/05/21 05:48:08;;;;;;;13.23;6.45;;;;;;;;;;5038946;28;20178;-66
2022/05/21 05:50:34;;;;;;;17.40;5.85;;;;;;;;;;5035811;28;20372;-66
2022/05/21 05:53:04;;;;;;;14.82;5.70;;;;;;;;;;5037129;28;20178;-68
2022/05/21 05:55:31;;;;;;;23.42;6.38;;;;;;;;;;5039501;28;20201;-66
2022/05/21 05:57:57;;;;;;;16.30;5.40;;;;;;;;;;5035318;28;20185;-67
2022/05/21 06:00:23;;;;;;;14.95;5.47;;;;;;;;;;5039910;28;20197;-68
2022/05/21 06:02:58;;;;;;;18.70;6.55;;;;;;;;;;5034822;28;20248;-66
2022/05/21 06:05:24;;;;;;;19.00;5.07;;;;;;;;;;4336854;28;10000797;-67
2022/05/21 06:07:53;;;;;;;23.98;6.47;;;;;;;;;;5026828;28;20178;-66
2022/05/21 06:10:22;;;;;;;15.73;5.25;;;;;;;;;;5030593;28;20193;-68
2022/05/21 06:12:48;;;;;;;14.13;4.47;;;;;;;;;;5033891;28;20201;-66
2022/05/21 06:15:14;;;;;;;16.80;4.38;;;;;;;;;;5028888;28;20257;-69
2022/05/21 06:17:40;;;;;;;15.63;5.10;;;;;;;;;;5031978;28;20189;-67
2022/05/21 06:20:08;;;;;;;18.90;4.18;;;;;;;;;;5029476;28;20663;-68
2022/05/21 06:22:33;;;;;;;19.10;4.57;;;;;;;;;;5028490;28;20660;-68
2022/05/21 06:25:03;;;;;;;17.02;4.43;;;;;;;;;;5027289;28;20209;-67
2022/05/21 06:27:28;;;;;;;17.15;4.72;;;;;;;;;;5036709;28;20189;-67
2022/05/21 06:29:54;;;;;;;13.13;3.70;;;;;;;;;;5024393;28;20194;-67
2022/05/21 06:32:19;;;;;;;16.02;4.15;;;;;;;;;;5029747;28;20209;-68
2022/05/21 06:34:45;;;;;;;14.75;4.10;;;;;;;;;;5029080;28;20603;-67
2022/05/21 06:37:12;;;;;;;13.77;3.55;;;;;;;;;;5027124;28;20269;-66
2022/05/21 06:39:39;;;;;;;12.55;4.05;;;;;;;;;;5032569;28;20193;-66
2022/05/21 06:42:05;;;;;;;13.35;3.88;;;;;;;;;;5024087;28;20189;-67
2022/05/21 06:44:31;;;;;;;14.15;3.58;;;;;;;;;;5023827;28;20579;-67
2022/05/21 06:46:57;;;;;;;12.27;3.92;;;;;;;;;;5032846;28;20173;-65
2022/05/21 06:49:23;;;;;;;18.40;4.30;;;;;;;;;;5029815;28;20197;-66
2022/05/21 06:51:54;;;;;;;11.05;3.47;;;;;;;;;;5034361;28;20263;-67
2022/05/21 06:54:19;;;;;;;12.57;3.30;;;;;;;;;;5030479;28;20178;-66
2022/05/21 06:56:45;;;;;;;13.43;3.75;;;;;;;;;;5036985;28;20204;-66
2022/05/21 06:59:10;;;;;;;10.38;3.65;;;;;;;;;;5037228;28;20188;-66
2022/05/21 07:01:36;;;;;;;16.20;3.97;;;;;;;;;;5032076;28;20263;-68
2022/05/21 07:04:01;;;;;;;14.60;4.10;;;;;;;;;;5032488;28;20216;-67
2022/05/21 07:09:10;;;;;;;14.45;3.80;;;;;;;;;;5034793;28;20189;-67
2022/05/21 07:11:37;;;;;;;18.25;4.00;;;;;;;;;;5034518;28;20229;-66
2022/05/21 07:14:03;;;;;;;13.38;3.53;;;;;;;;;;5033696;28;20294;-65
2022/05/21 07:16:28;;;;;;;14.98;3.85;;;;;;;;;;5036334;28;20223;-66
2022/05/21 07:18:55;;;;;;;13.25;3.45;;;;;;;;;;5034321;28;20213;-67
2022/05/21 07:21:20;;;;;;;15.20;3.28;;;;;;;;;;5036010;28;20293;-67
2022/05/21 07:23:46;;;;;;;15.25;3.53;;;;;;;;;;5036010;28;20746;-67
2022/05/21 07:26:12;;;;;;;15.35;3.33;;;;;;;;;;5030964;28;20202;-66
2022/05/21 07:28:38;;;;;;;12.23;3.72;;;;;;;;;;5037725;28;20173;-67
2022/05/21 07:31:04;;;;;;;13.95;3.35;;;;;;;;;;5034267;28;20540;-65
2022/05/21 07:33:29;;;;;;;16.75;3.40;;;;;;;;;;4681170;28;10001072;-66
2022/05/21 07:35:55;;;;;;;9.38;3.65;;;;;;;;;;5027921;28;20634;-65
2022/05/21 07:38:20;;;;;;;12.85;3.47;;;;;;;;;;5023117;28;20814;-66
2022/05/21 07:40:47;;;;;;;14.48;3.10;;;;;;;;;;5025664;28;20336;-67
2022/05/21 07:43:18;;;;;;;12.68;2.92;;;;;;;;;;5022661;28;20186;-67
2022/05/21 07:45:45;;;;;;;13.30;2.78;;;;;;;;;;5023945;28;20209;-69
2022/05/21 07:48:13;;;;;;;14.77;3.35;;;;;;;;;;5022215;28;20186;-67
2022/05/21 07:50:41;;;;;;;12.57;3.63;;;;;;;;;;5025046;28;20221;-67
2022/05/21 07:53:11;;;;;;;13.88;2.90;;;;;;;;;;5027895;28;20192;-67
2022/05/21 07:55:37;;;;;;;12.52;3.03;;;;;;;;;;5034104;28;20517;-66
2022/05/21 07:58:02;;;;;;;9.52;3.17;;;;;;;;;;5037513;28;20190;-68
2022/05/21 08:00:27;;;;;;;11.80;2.92;;;;;;;;;;5023652;28;20636;-66
2022/05/21 08:02:53;;;;;;;8.23;2.78;;;;;;;;;;5034661;28;20793;-67
2022/05/21 08:05:19;;;;;;;11.40;3.05;;;;;;;;;;5026089;28;20211;-68
2022/05/21 08:07:49;;;;;;;12.75;2.85;;;;;;;;;;5034430;28;20540;-66
2022/05/21 08:10:15;;;;;;;12.98;3.10;;;;;;;;;;5029204;28;20193;-66
2022/05/21 08:12:40;;;;;;;14.60;2.80;;;;;;;;;;5039655;28;20735;-65
2022/05/21 08:15:06;;;;;;;11.13;2.83;;;;;;;;;;5032980;28;20839;-67
2022/05/21 08:17:32;;;;;;;14.57;2.80;;;;;;;;;;5043719;28;20216;-66
2022/05/21 08:19:57;;;;;;;12.93;3.22;;;;;;;;;;5031719;28;20186;-67
2022/05/21 08:27:56;;;;;;;16.45;2.33;;;;;;;;;;5031911;28;20572;-67
2022/05/21 08:30:21;;;;;;;12.35;2.60;;;;;;;;;;5038999;28;20264;-67
2022/05/21 08:32:47;;;;;;;6.75;2.05;;;;;;;;;;5032357;28;20265;-66
2022/05/21 08:35:12;;;;;;;12.98;2.58;;;;;;;;;;5040314;28;20221;-67
2022/05/21 08:37:37;;;;;;;8.18;2.25;;;;;;;;;;5036914;28;20190;-66
2022/05/21 08:40:03;;;;;;;8.18;2.15;;;;;;;;;;5038460;28;20235;-65
2022/05/21 08:42:38;;;;;;;9.93;2.20;;;;;;;;;;5028210;28;20267;-66
2022/05/21 08:45:23;;;;;;;13.18;2.38;;;;;;;;;;5029168;28;20190;-66
2022/05/21 08:48:03;;;;;;;13.35;2.08;;;;;;;;;;5034897;28;20189;-66
2022/05/21 08:50:33;;;;;;;7.65;2.15;;;;;;;;;;5026840;28;20196;-67
2022/05/21 08:53:13;;;;;;;11.02;1.85;;;;;;;;;;5036855;28;20457;-66
2022/05/21 08:55:50;;;;;;;11.45;1.80;;;;;;;;;;5039671;28;20194;-66
2022/05/21 08:58:35;;;;;;;8.13;2.05;;;;;;;;;;5029107;28;20671;-67
2022/05/21 09:01:00;;;;;;;7.82;2.13;;;;;;;;;;5033140;28;20182;-66
2022/05/21 09:03:27;;;;;;;7.18;1.88;;;;;;;;;;5039369;28;20678;-67
2022/05/21 09:06:03;;;;;;;10.48;2.13;;;;;;;;;;5043218;28;20213;-67
2022/05/21 09:08:42;;;;;;;7.80;1.70;;;;;;;;;;5040657;28;20554;-66
2022/05/21 09:11:13;;;;;;;9.30;1.52;;;;;;;;;;5033178;28;20324;-65
2022/05/21 09:13:59;;;;;;;6.22;1.40;;;;;;;;;;5036239;28;20198;-67
2022/05/21 09:19:09;;;;;;;5.10;1.55;;;;;;;;;;5032030;28;20487;-67
2022/05/21 09:21:42;;;;;;;4.70;1.67;;;;;;;;;;5026962;28;20198;-67
2022/05/21 09:24:08;;;;;;;11.27;2.38;;;;;;;;;;5030205;28;20186;-69
2022/05/21 09:26:49;;;;;;;9.93;1.95;;;;;;;;;;5038752;28;20213;-68
2022/05/21 09:29:26;;;;;;;7.25;1.52;;;;;;;;;;5028430;28;20197;-67
2022/05/21 09:31:53;;;;;;;7.10;1.52;;;;;;;;;;5039714;28;20220;-69
2022/05/21 09:34:31;;;;;;;7.82;1.63;;;;;;;;;;5042687;28;20192;-66
2022/05/21 09:36:58;;;;;;;7.88;1.88;;;;;;;;;;5027060;28;20190;-67
2022/05/21 09:39:39;;;;;;;4.65;1.20;;;;;;;;;;5023525;28;20716;-67
2022/05/21 09:42:09;;;;;;;8.52;1.67;;;;;;;;;;5026057;28;20190;-68
2022/05/21 09:47:25;;;;;;;6.75;1.27;;;;;;;;;;5025908;28;20665;-67
2022/05/21 09:50:08;;;;;;;3.63;1.13;;;;;;;;;;5028775;28;20201;-66
2022/05/21 09:52:34;;;;;;;10.68;1.73;;;;;;;;;;5034804;28;20687;-67
2022/05/21 09:55:02;;;;;;;4.53;1.40;;;;;;;;;;5024611;28;20240;-66
2022/05/21 09:57:37;;;;;;;8.20;1.48;;;;;;;;;;5025841;28;20211;-68
2022/05/21 10:00:14;;;;;;;4.82;1.23;;;;;;;;;;5038365;28;20798;-68
2022/05/21 10:02:46;;;;;;;4.47;0.95;;;;;;;;;;5029394;28;20230;-67
2022/05/21 10:05:16;;;;;;;4.50;1.15;;;;;;;;;;5029105;28;20202;-68
2022/05/21 10:10:59;;;;;;;6.55;1.48;;;;;;;;;;5032551;28;20189;-69
2022/05/21 10:13:33;;;;;;;4.50;1.30;;;;;;;;;;5033678;28;20193;-67
2022/05/21 10:16:29;;;;;;;5.22;1.55;;;;;;;;;;5041050;28;20265;-67
2022/05/21 10:19:12;;;;;;;6.18;1.45;;;;;;;;;;5036195;28;20186;-67
2022/05/21 10:22:15;;;;;;;5.32;1.45;;;;;;;;;;5025110;28;20622;-68
2022/05/21 10:24:53;;;;;;;7.05;1.38;;;;;;;;;;5026252;28;20256;-69
2022/05/21 10:27:36;;;;;;;6.10;1.60;;;;;;;;;;5027929;28;20652;-67
2022/05/21 10:30:06;;;;;;;9.73;1.60;;;;;;;;;;5043545;28;20196;-68
2022/05/21 10:33:02;;;;;;;4.72;1.45;;;;;;;;;;5032547;28;20208;-69
2022/05/21 10:35:36;;;;;;;7.40;1.30;;;;;;;;;;5029789;28;20186;-69
2022/05/21 10:38:33;;;;;;;5.93;2.03;;;;;;;;;;5041313;28;20189;-67
2022/05/21 10:41:35;;;;;;;5.10;1.60;;;;;;;;;;5041954;28;20570;-69
2022/05/21 10:44:26;;;;;;;4.40;1.20;;;;;;;;;;4684220;28;10000244;-67
2022/05/21 10:47:03;;;;;;;5.47;1.55;;;;;;;;;;5028338;28;20632;-68
2022/05/21 10:50:01;;;;;;;5.35;1.58;;;;;;;;;;5034291;28;20653;-67
2022/05/21 10:52:51;;;;;;;7.57;1.80;;;;;;;;;;5030491;28;20185;-68
2022/05/21 10:55:23;;;;;;;7.32;1.50;;;;;;;;;;5042586;28;20227;-66
2022/05/21 10:58:00;;;;;;;6.53;1.55;;;;;;;;;;4682809;28;10000268;-68
2022/05/21 11:00:36;;;;;;;5.20;1.60;;;;;;;;;;5033154;28;20200;-70
2022/05/21 11:03:32;;;;;;;7.60;1.52;;;;;;;;;;5034641;28;20185;-66
2022/05/21 11:06:22;;;;;;;6.53;1.55;;;;;;;;;;5030490;28;20399;-67
2022/05/21 11:09:31;;;;;;;5.53;1.70;;;;;;;;;;5023576;28;20201;-66
2022/05/21 11:12:18;;;;;;;8.45;1.30;;;;;;;;;;5028553;28;20257;-66
2022/05/21 11:14:56;;;;;;;5.70;1.35;;;;;;;;;;5026228;28;20563;-66
2022/05/21 11:17:30;;;;;;;5.50;1.13;;;;;;;;;;5035209;28;20181;-68
2022/05/21 11:20:02;;;;;;;11.50;2.13;;;;;;;;;;5026443;28;20190;-65
2022/05/21 11:22:36;;;;;;;9.27;2.33;;;;;;;;;;5026524;28;20190;-66
2022/05/21 11:25:10;;;;;;;7.22;1.55;;;;;;;;;;5024382;28;20509;-66
2022/05/21 11:27:43;;;;;;;5.35;1.40;;;;;;;;;;5022790;28;20776;-67
2022/05/21 11:30:16;;;;;;;5.32;1.50;;;;;;;;;;5023279;28;20171;-68
2022/05/21 11:38:29;;;;;;;6.07;1.60;;;;;;;;;;5023619;28;20577;-68
2022/05/21 11:44:55;;;;;;;6.38;1.40;;;;;;;;;;5024045;28;20279;-67
2022/05/21 11:46:45;;;;;;;5.10;1.27;;;;;;;;;;5026195;28;20214;-66
2022/05/21 11:49:38;;;;;;;6.85;2.17;;;;;;;;;;5027987;28;20186;-67
2022/05/21 11:52:30;;;;;;;6.97;1.52;;;;;;;;;;5028003;28;20183;-66
2022/05/21 11:54:58;;;;;;;5.65;1.40;;;;;;;;;;5028741;28;20189;-66
2022/05/21 11:57:43;;;;;;;6.43;1.65;;;;;;;;;;5032904;28;20680;-66
2022/05/21 12:00:28;;;;;;;5.30;1.50;;;;;;;;;;5033398;28;20213;-69
2022/05/21 12:02:53;;;;;;;4.63;1.50;;;;;;;;;;5033060;28;20182;-65
2022/05/21 12:05:34;;;;;;;5.00;1.23;;;;;;;;;;5036179;28;20684;-67
2022/05/21 12:08:12;;;;;;;6.35;1.30;;;;;;;;;;5037748;28;20659;-69
2022/05/21 12:11:04;;;;;;;4.97;1.17;;;;;;;;;;5039846;28;20226;-67
2022/05/21 12:13:33;;;;;;;3.97;1.23;;;;;;;;;;5038829;28;20280;-67
2022/05/21 12:16:17;;;;;;;5.68;1.33;;;;;;;;;;5034496;28;20190;-68
2022/05/21 12:19:05;;;;;;;4.28;1.20;;;;;;;;;;5038482;28;20225;-66
2022/05/21 12:21:32;;;;;;;8.13;1.05;;;;;;;;;;5038585;28;20193;-66
2022/05/21 12:24:03;;;;;;;3.92;0.95;;;;;;;;;;5041999;28;20182;-68
2022/05/21 12:26:37;;;;;;;5.57;1.20;;;;;;;;;;5034130;28;20536;-67
2022/05/21 12:29:20;;;;;;;3.22;1.10;;;;;;;;;;5036973;28;20199;-67
2022/05/21 12:31:52;;;;;;;4.07;1.00;;;;;;;;;;5041211;28;20205;-67
2022/05/21 12:34:23;;;;;;;5.72;0.93;;;;;;;;;;5041347;28;20644;-66
2022/05/21 12:37:04;;;;;;;4.97;0.98;;;;;;;;;;5032737;28;20260;-69
2022/05/21 12:39:50;;;;;;;5.68;1.40;;;;;;;;;;5033981;28;20259;-68
2022/05/21 12:42:29;;;;;;;7.20;1.27;;;;;;;;;;5020725;28;20276;-68
2022/05/21 12:44:55;;;;;;;3.53;0.82;;;;;;;;;;5041338;28;20205;-67
2022/05/21 12:47:35;;;;;;;7.80;1.40;;;;;;;;;;5040939;28;20178;-69
2022/05/21 12:50:11;;;;;;;6.97;1.48;;;;;;;;;;5037927;28;20177;-68
2022/05/21 12:52:45;;;;;;;3.53;1.00;;;;;;;;;;5032753;28;20181;-68
2022/05/21 12:55:21;;;;;;;6.72;1.05;;;;;;;;;;5030464;28;20302;-67
2022/05/21 12:57:52;;;;;;;6.93;1.10;;;;;;;;;;5039019;28;20230;-68
2022/05/21 13:00:20;;;;;;;5.10;1.20;;;;;;;;;;5032676;28;20642;-68
2022/05/21 13:02:49;;;;;;;2.30;0.70;;;;;;;;;;5035830;28;20196;-67
2022/05/21 13:05:26;;;;;;;5.30;1.35;;;;;;;;;;5033830;28;20205;-67
2022/05/21 13:07:53;;;;;;;5.60;2.10;;;;;;;;;;5033019;28;20190;-67
2022/05/21 13:10:31;;;;;;;7.68;1.80;;;;;;;;;;5037177;28;20186;-70
2022/05/21 13:13:11;;;;;;;4.97;1.73;;;;;;;;;;5041354;28;20185;-67
2022/05/21 13:15:37;;;;;;;4.43;1.20;;;;;;;;;;5036090;28;20213;-67
2022/05/21 13:18:11;;;;;;;7.95;1.20;;;;;;;;;;5040424;28;20584;-68
2022/05/21 13:20:58;;;;;;;9.10;3.58;;;;;;;;;;4340596;28;10000873;-67
2022/05/21 13:23:57;;;;;;;9.18;2.05;;;;;;;;;;4684919;28;10000035;-67
2022/05/21 13:26:27;;;;;;;6.70;1.60;;;;;;;;;;5034074;28;20549;-71
2022/05/21 13:29:20;;;;;;;6.88;1.35;;;;;;;;;;5036701;28;20645;-67
2022/05/21 13:31:48;;;;;;;6.50;1.17;;;;;;;;;;5026330;28;20197;-68
2022/05/21 13:34:17;;;;;;;6.53;1.20;;;;;;;;;;5038075;28;20383;-72
2022/05/21 13:36:50;;;;;;;10.88;1.00;;;;;;;;;;5036569;28;20562;-71
2022/05/21 13:39:29;;;;;;;4.55;1.33;;;;;;;;;;5038225;28;20194;-68
2022/05/21 13:41:59;;;;;;;6.60;1.63;;;;;;;;;;5035311;28;20181;-70
2022/05/21 13:44:25;;;;;;;3.72;1.00;;;;;;;;;;5034238;28;20181;-66
2022/05/21 13:46:59;;;;;;;7.05;1.33;;;;;;;;;;5029817;28;20208;-67
2022/05/21 13:49:37;;;;;;;6.72;1.33;;;;;;;;;;5025744;28;20185;-68
2022/05/21 13:52:04;;;;;;;3.90;1.30;;;;;;;;;;5037617;28;20208;-72
2022/05/21 13:54:32;;;;;;;6.13;1.27;;;;;;;;;;4682608;28;9999822;-68
2022/05/21 13:57:03;;;;;;;5.18;0.95;;;;;;;;;;5039448;28;20428;-68
2022/05/21 13:59:28;;;;;;;7.13;1.63;;;;;;;;;;5041170;28;21339;-68
2022/05/21 14:02:12;;;;;;;12.75;2.13;;;;;;;;;;5032378;28;20184;-69
2022/05/21 14:04:39;;;;;;;6.25;1.50;;;;;;;;;;5026427;28;20190;-67
2022/05/21 14:07:22;;;;;;;5.82;1.02;;;;;;;;;;5034529;28;20418;-68
2022/05/21 14:09:49;;;;;;;5.10;1.50;;;;;;;;;;5027035;28;20189;-68
2022/05/21 14:12:38;;;;;;;6.10;1.75;;;;;;;;;;5029086;28;20230;-67
2022/05/21 14:15:19;;;;;;;4.95;1.50;;;;;;;;;;5028813;28;20744;-68
2022/05/21 14:17:54;;;;;;;6.18;1.20;;;;;;;;;;5030084;28;20185;-68
2022/05/21 14:20:24;;;;;;;6.97;1.40;;;;;;;;;;5034734;28;20177;-67
2022/05/21 14:22:50;;;;;;;4.93;1.27;;;;;;;;;;5038451;28;20722;-67
2022/05/21 14:25:24;;;;;;;5.25;1.05;;;;;;;;;;5026679;28;20213;-67
2022/05/21 14:28:16;;;;;;;4.53;1.23;;;;;;;;;;5025206;28;20220;-65
2022/05/21 14:30:45;;;;;;;4.15;1.30;;;;;;;;;;5027928;28;20289;-68
2022/05/21 14:33:18;;;;;;;7.30;1.60;;;;;;;;;;5026197;28;20665;-67
2022/05/21 14:35:45;;;;;;;4.60;1.30;;;;;;;;;;5036096;28;20189;-69
2022/05/21 14:38:10;;;;;;;5.72;1.13;;;;;;;;;;5032003;28;20259;-68
2022/05/21 14:40:47;;;;;;;3.58;0.93;;;;;;;;;;5024579;28;20775;-70
2022/05/21 14:43:35;;;;;;;4.50;0.98;;;;;;;;;;5027761;28;20634;-68
2022/05/21 14:46:00;;;;;;;4.68;0.98;;;;;;;;;;5027892;28;20258;-67
2022/05/21 14:48:26;;;;;;;4.03;0.85;;;;;;;;;;5027802;28;20273;-66
2022/05/21 14:53:44;;;;;;;4.18;1.10;;;;;;;;;;5029076;28;20196;-68
2022/05/21 14:56:31;;;;;;;4.60;0.90;;;;;;;;;;5026972;28;20516;-68
2022/05/21 14:58:58;;;;;;;3.60;1.10;;;;;;;;;;5030373;28;20251;-67
2022/05/21 15:01:24;;;;;;;3.78;1.00;;;;;;;;;;5029874;28;20186;-68
2022/05/21 15:03:50;;;;;;;7.22;1.20;;;;;;;;;;5028578;28;20189;-67
2022/05/21 15:06:20;;;;;;;4.65;1.55;;;;;;;;;;5031561;28;20267;-70
2022/05/21 15:08:45;;;;;;;4.75;1.05;;;;;;;;;;5038436;28;20657;-68
2022/05/21 15:11:11;;;;;;;4.07;0.95;;;;;;;;;;5043569;28;20228;-68
2022/05/21 15:13:36;;;;;;;5.63;1.23;;;;;;;;;;5028145;28;20258;-68
2022/05/21 15:16:02;;;;;;;6.43;1.55;;;;;;;;;;5030689;28;20189;-67
2022/05/21 15:18:27;;;;;;;7.55;1.90;;;;;;;;;;5029113;28;20351;-70
2022/05/21 15:20:54;;;;;;;5.70;1.25;;;;;;;;;;5023837;28;20779;-68
2022/05/21 15:23:19;;;;;;;20.25;1.98;;;;;;;;;;5027196;28;20178;-70
2022/05/21 15:25:45;;;;;;;6.13;1.52;;;;;;;;;;5030842;28;20223;-71